Flight Track Log - Related Links

Times and Time Zones

All times are in EDT time to prevent confusion due to time zone crossing. See the AFL150 flight status page for this flight to view local times or setup timezone preferences in your user account.


Time Position Orientation Groundspeed Altitude Reporting Facility
EDT Latitude Longitude Course Direction KTS MPH feet Rate Location/Type
Mon 06:26:00 AM 56.3591 36.5323 310° West  Level FlightAware Approximate
Mon 06:27:00 AM 56.4389 36.3571 310° West  Level FlightAware Approximate
Mon 06:28:00 AM 56.5184 36.1811 309° West  Level FlightAware Approximate
Mon 06:29:00 AM 56.5977 36.0045 309° West  Level FlightAware Approximate
Mon 06:30:00 AM 56.6767 35.8271 309° West  Level FlightAware Approximate
Mon 06:31:00 AM 56.7555 35.6489 309° West  Level FlightAware Approximate
Mon 06:32:00 AM 56.8340 35.4701 309° West  Level FlightAware Approximate
Mon 06:33:00 AM 56.9123 35.2904 309° West  Level FlightAware Approximate
Mon 06:34:00 AM 56.9903 35.1100 308° West  Level FlightAware Approximate
Mon 06:35:00 AM 57.0680 34.9288 308° West  Level FlightAware Approximate
Mon 06:36:00 AM 57.1455 34.7469 308° West  Level FlightAware Approximate
Mon 06:37:00 AM 57.2227 34.5643 308° West  Level FlightAware Approximate
Mon 06:38:00 AM 57.2996 34.3808 308° West  Level FlightAware Approximate
Mon 06:39:00 AM 57.3763 34.1966 308° West  Level FlightAware Approximate
Mon 06:40:00 AM 57.3830 34.1717 306° West  Level FlightAware Approximate
Mon 06:41:00 AM 57.4561 33.9820 306° West  Level FlightAware Approximate
Mon 06:42:00 AM 57.5288 33.7916 305° West  Level FlightAware Approximate
Mon 06:43:00 AM 57.6012 33.6004 305° West  Level FlightAware Approximate
Mon 06:44:00 AM 57.6734 33.4085 305° West  Level FlightAware Approximate
Mon 06:45:00 AM 57.7452 33.2157 305° West  Level FlightAware Approximate
Mon 06:46:00 AM 57.8168 33.0223 305° West  Level FlightAware Approximate
Mon 06:47:00 AM 57.8880 32.8280 305° West  Level FlightAware Approximate
Mon 06:48:00 AM 57.9590 32.6330 305° West  Level FlightAware Approximate
Mon 06:49:00 AM 58.0297 32.4372 304° West  Level FlightAware Approximate
Mon 06:50:00 AM 58.1000 32.2406 304° West  Level FlightAware Approximate
Mon 06:51:00 AM 58.1701 32.0433 304° West  Level FlightAware Approximate
Mon 06:52:00 AM 58.2398 31.8451 304° West  Level FlightAware Approximate
Mon 06:53:00 AM 58.3093 31.6462 304° West  Level FlightAware Approximate
Mon 06:54:00 AM 58.3784 31.4466 303° West  Level FlightAware Approximate
Mon 06:55:00 AM 58.4473 31.2461 303° West  Level FlightAware Approximate
Mon 06:56:00 AM 58.5158 31.0448 303° West  Level FlightAware Approximate
Mon 06:57:00 AM 58.5840 30.8428 303° West  Level FlightAware Approximate
Mon 06:58:00 AM 58.6519 30.6400 303° West  Level FlightAware Approximate
Mon 06:59:00 AM 58.7194 30.4364 303° West  Level FlightAware Approximate
Mon 07:00:00 AM 58.7867 30.2320 302° West  Level FlightAware Approximate
Mon 07:01:00 AM 58.8536 30.0268 302° West  Level FlightAware Approximate
Mon 07:02:00 AM 58.9201 29.8208 302° West  Level FlightAware Approximate
Mon 07:03:00 AM 58.9863 29.6139 302° West  Level FlightAware Approximate
Mon 07:04:00 AM 59.0521 29.4062 302° West  Level FlightAware Approximate
Mon 07:05:00 AM 59.1176 29.1977 302° West  Level FlightAware Approximate
Mon 07:06:00 AM 59.1827 28.9884 301° West  Level FlightAware Approximate
Mon 07:07:00 AM 59.2475 28.7783 301° West  Level FlightAware Approximate
Mon 07:08:00 AM 59.3120 28.5674 301° West  Level FlightAware Approximate
Mon 07:09:00 AM 59.3761 28.3557 301° West  Level FlightAware Approximate
Mon 07:10:00 AM 59.4399 28.1432 301° West  Level FlightAware Approximate
Mon 07:11:00 AM 59.5033 27.9299 300° West  Level FlightAware Approximate
Mon 07:12:00 AM 59.5664 27.7158 300° West  Level FlightAware Approximate
Mon 07:13:00 AM 59.6291 27.5009 300° West  Level FlightAware Approximate
Mon 07:14:00 AM 59.6915 27.2852 300° West  Level FlightAware Approximate
Mon 07:15:00 AM 59.7536 27.0687 300° West  Level FlightAware Approximate
Mon 07:16:00 AM 59.8152 26.8514 300° West  Level FlightAware Approximate
Mon 07:17:00 AM 59.8765 26.6333 299° West  Level FlightAware Approximate
Mon 07:18:00 AM 59.9375 26.4144 299° West  Level FlightAware Approximate
Mon 07:19:00 AM 59.9981 26.1947 299° West  Level FlightAware Approximate
Mon 07:20:00 AM 60.0583 25.9742 299° West  Level FlightAware Approximate
Mon 07:21:00 AM 60.1181 25.7528 299° West  Level FlightAware Approximate
Mon 07:22:00 AM 60.1776 25.5307 298° West  Level FlightAware Approximate
Mon 07:23:00 AM 60.2367 25.3078 298° West  Level FlightAware Approximate
Mon 07:24:00 AM 60.2955 25.0841 298° West  Level FlightAware Approximate
Mon 07:24:53 AM 59.9305 26.4687 286° West 464 534 33,000  Level FlightAware ADS-B
Mon 07:25:00 AM 60.3539 24.8596 298° West  Level FlightAware Approximate
Mon 07:26:00 AM 60.4119 24.6344 298° West  Level FlightAware Approximate
Mon 07:26:29 AM 60.0176 26.0973 304° West 470 541 33,000  Level FlightAware ADS-B
Mon 07:27:05 AM 60.0656 25.9733 310° West 472 543 33,000  Level FlightAware ADS-B
Mon 07:27:36 AM 60.1135 25.8755 316° Northwest 475 547 33,000  Level FlightAware ADS-B
Mon 07:28:06 AM 60.1615 25.7854 310° West 471 542 33,000  Level FlightAware ADS-B
Mon 07:28:48 AM 60.2114 25.6451 304° West 469 540 33,000  Level FlightAware ADS-B
Mon 07:29:18 AM 60.2489 25.5275 299° West 468 539 33,000  Level FlightAware ADS-B
Mon 07:29:59 AM 60.2859 25.3669 294° West 468 539 33,000  Level FlightAware ADS-B
Mon 07:30:29 AM 60.3079 25.2676 294° West 470 541 33,000  Level FlightAware ADS-B
Mon 07:31:08 AM 60.3471 25.0934 295° West 472 543 33,000  Level FlightAware ADS-B
Mon 07:31:45 AM 60.3814 24.9436 295° West 473 544 33,000  Level FlightAware ADS-B
Mon 07:32:28 AM 60.4205 24.7706 294° West 474 545 33,000  Level FlightAware ADS-B
Mon 07:32:58 AM 60.4468 24.6510 294° West 473 544 33,000  Level FlightAware ADS-B
Mon 07:34:46 AM 60.5408 24.2134 293° West 469 540 33,000  Level FlightAware ADS-B
Mon 07:35:19 AM 60.5646 24.1015 293° West 471 542 33,000  Level FlightAware ADS-B
Mon 07:35:57 AM 60.6040 23.9489 301° West 473 544 33,000  Level FlightAware ADS-B
Mon 07:36:28 AM 60.6430 23.8132 300° West 473 544 33,000  Level FlightAware ADS-B
Mon 07:37:08 AM 60.6858 23.6634 300° West 473 544 33,000  Level FlightAware ADS-B
Mon 07:37:39 AM 60.7190 23.5470 300° West 472 543 33,000  Level FlightAware ADS-B
Mon 07:38:16 AM 60.7609 23.3991 300° West 469 540 33,000 37 Level FlightAware ADS-B
Mon 07:40:20 AM 60.8932 22.9263 300° West 464 534 33,100 255 Climbing FlightAware ADS-B
Mon 07:41:01 AM 60.9359 22.7712 300° West 465 535 33,700 223 Climbing FlightAware ADS-B
Mon 07:44:22 AM 61.1462 21.9929 300° West 465 535 34,000 62 Climbing FlightAware ADS-B
Mon 07:45:50 AM 61.2390 21.6398 299° West 471 542 34,000  Level FlightAware ADS-B
Mon 07:46:00 AM 61.2322 21.6066 295° West  Level FlightAware Approximate
Mon 07:46:46 AM 61.1462 21.9929 299° West 471 542 34,000  Level FlightAware ADS-B
Mon 07:49:00 AM 61.2573 21.4585 294° West  Level Estimated
Mon 07:50:00 AM 61.3091 21.2205 295° West  Level FlightAware Approximate
Mon 07:51:00 AM 61.3606 20.9818 294° West  Level FlightAware Approximate
Mon 07:52:00 AM 61.4116 20.7422 294° West  Level FlightAware Approximate
Mon 07:53:00 AM 61.4622 20.5019 294° West  Level FlightAware Approximate
Mon 07:54:00 AM 61.5124 20.2608 294° West  Level FlightAware Approximate
Mon 07:55:00 AM 61.5621 20.0189 293° West  Level FlightAware Approximate
Mon 07:56:00 AM 61.6114 19.7763 293° West  Level FlightAware Approximate
Mon 07:57:00 AM 61.6603 19.5329 293° West  Level FlightAware Approximate
Mon 07:58:00 AM 61.7088 19.2887 293° West  Level FlightAware Approximate
Mon 07:59:00 AM 61.7568 19.0438 293° West  Level FlightAware Approximate
Mon 08:00:00 AM 61.8044 18.7981 292° West  Level FlightAware Approximate
Mon 08:01:00 AM 61.8515 18.5516 292° West  Level FlightAware Approximate
Mon 08:02:00 AM 61.8982 18.3044 292° West  Level FlightAware Approximate
Mon 08:03:00 AM 61.9445 18.0564 292° West  Level FlightAware Approximate
Mon 08:04:00 AM 61.9903 17.8077 292° West  Level FlightAware Approximate
Mon 08:05:00 AM 62.0357 17.5582 291° West  Level FlightAware Approximate
Mon 08:06:00 AM 62.0806 17.3080 291° West  Level FlightAware Approximate
Mon 08:07:00 AM 62.1250 17.0571 291° West  Level FlightAware Approximate
Mon 08:08:00 AM 62.1690 16.8054 291° West  Level FlightAware Approximate
Mon 08:09:00 AM 62.2126 16.5530 290° West  Level FlightAware Approximate
Mon 08:10:00 AM 62.2557 16.2998 290° West  Level FlightAware Approximate
Mon 08:11:00 AM 62.2983 16.0460 290° West  Level FlightAware Approximate
Mon 08:12:00 AM 62.3404 15.7914 290° West  Level FlightAware Approximate
Mon 08:13:00 AM 62.3821 15.5361 290° West  Level FlightAware Approximate
Mon 08:14:00 AM 62.4234 15.2801 289° West  Level FlightAware Approximate
Mon 08:15:00 AM 62.4641 15.0234 289° West  Level FlightAware Approximate
Mon 08:16:00 AM 62.5044 14.7660 289° West  Level FlightAware Approximate
Mon 08:17:00 AM 62.5442 14.5079 289° West  Level FlightAware Approximate
Mon 08:18:00 AM 62.5835 14.2492 288° West  Level FlightAware Approximate
Mon 08:19:00 AM 62.6224 13.9897 288° West  Level FlightAware Approximate
Mon 08:20:00 AM 62.6607 13.7296 288° West  Level FlightAware Approximate
Mon 08:21:00 AM 62.6986 13.4688 288° West  Level FlightAware Approximate
Mon 08:22:00 AM 62.7360 13.2073 287° West  Level FlightAware Approximate
Mon 08:23:00 AM 62.7729 12.9452 287° West  Level FlightAware Approximate
Mon 08:24:00 AM 62.8093 12.6824 287° West  Level FlightAware Approximate
Mon 08:25:00 AM 62.8453 12.4190 287° West  Level FlightAware Approximate
Mon 08:26:00 AM 62.8807 12.1550 287° West  Level FlightAware Approximate
Mon 08:27:00 AM 62.9157 11.8903 286° West  Level FlightAware Approximate
Mon 08:28:00 AM 62.9501 11.6249 286° West  Level FlightAware Approximate
Mon 08:29:00 AM 62.9841 11.3590 286° West  Level FlightAware Approximate
Mon 08:30:00 AM 63.0175 11.0924 286° West  Level FlightAware Approximate
Mon 08:31:00 AM 63.0505 10.8253 285° West  Level FlightAware Approximate
Mon 08:32:00 AM 63.0829 10.5575 285° West  Level FlightAware Approximate
Mon 08:33:00 AM 63.1148 10.2892 285° West  Level FlightAware Approximate
Mon 08:34:00 AM 63.1463 10.0202 285° West  Level FlightAware Approximate
Mon 08:35:00 AM 63.1772 9.7507 284° West  Level FlightAware Approximate
Mon 08:36:00 AM 63.2076 9.4806 284° West  Level FlightAware Approximate
Mon 08:37:00 AM 63.2375 9.2099 284° West  Level FlightAware Approximate
Mon 08:38:00 AM 63.2668 8.9387 284° West  Level FlightAware Approximate
Mon 08:39:00 AM 63.2957 8.6670 283° West  Level FlightAware Approximate
Mon 08:40:00 AM 63.3241 8.3946 283° West  Level FlightAware Approximate
Mon 08:41:00 AM 63.3519 8.1218 283° West  Level FlightAware Approximate
Mon 08:42:00 AM 63.3792 7.8485 283° West  Level FlightAware Approximate
Mon 08:43:00 AM 63.4059 7.5746 282° West  Level FlightAware Approximate
Mon 08:44:00 AM 63.4322 7.3002 282° West  Level FlightAware Approximate
Mon 08:45:00 AM 63.4579 7.0253 282° West  Level FlightAware Approximate
Mon 08:46:00 AM 63.4831 6.7499 282° West  Level FlightAware Approximate
Mon 08:47:00 AM 63.5078 6.4741 281° West  Level FlightAware Approximate
Mon 08:48:00 AM 63.5319 6.1978 281° West  Level FlightAware Approximate
Mon 08:49:00 AM 63.5555 5.9210 281° West  Level FlightAware Approximate
Mon 08:50:00 AM 63.5786 5.6438 281° West  Level FlightAware Approximate
Mon 08:51:00 AM 63.6011 5.3661 280° West  Level FlightAware Approximate
Mon 08:52:00 AM 63.6231 5.0880 280° West  Level FlightAware Approximate
Mon 08:53:00 AM 63.6446 4.8094 280° West  Level FlightAware Approximate
Mon 08:54:00 AM 63.6655 4.5305 280° West  Level FlightAware Approximate
Mon 08:55:00 AM 63.6859 4.2511 279° West  Level FlightAware Approximate
Mon 08:56:00 AM 63.7057 3.9713 279° West  Level FlightAware Approximate
Mon 08:57:00 AM 63.7250 3.6912 279° West  Level FlightAware Approximate
Mon 08:58:00 AM 63.7438 3.4107 279° West  Level FlightAware Approximate
Mon 08:59:00 AM 63.7620 3.1298 278° West  Level FlightAware Approximate
Mon 09:00:00 AM 63.7796 2.8485 278° West  Level FlightAware Approximate
Mon 09:01:00 AM 63.7967 2.5669 278° West  Level FlightAware Approximate
Mon 09:02:00 AM 63.8133 2.2850 278° West  Level FlightAware Approximate
Mon 09:03:00 AM 63.8293 2.0027 277° West  Level FlightAware Approximate
Mon 09:04:00 AM 63.8447 1.7202 277° West  Level FlightAware Approximate
Mon 09:05:00 AM 63.8596 1.4373 277° West  Level FlightAware Approximate
Mon 09:06:00 AM 63.8740 1.1541 277° West  Level FlightAware Approximate
Mon 09:07:00 AM 63.8878 0.8707 276° West  Level FlightAware Approximate
Mon 09:08:00 AM 63.9010 0.5869 276° West  Level FlightAware Approximate
Mon 09:09:00 AM 63.9137 0.3029 276° West  Level FlightAware Approximate
Mon 09:10:00 AM 63.9259 0.0187 276° West  Level FlightAware Approximate
Mon 09:11:00 AM 63.9374 -0.2658 275° West  Level FlightAware Approximate
Mon 09:12:00 AM 63.9484 -0.5505 275° West  Level FlightAware Approximate
Mon 09:13:00 AM 63.9589 -0.8354 275° West  Level FlightAware Approximate
Mon 09:14:00 AM 63.9688 -1.1206 275° West  Level FlightAware Approximate
Mon 09:15:00 AM 63.9781 -1.4059 274° West  Level FlightAware Approximate
Mon 09:16:00 AM 63.9869 -1.6914 274° West  Level FlightAware Approximate
Mon 09:17:00 AM 63.9952 -1.9771 274° West  Level FlightAware Approximate
Mon 09:18:00 AM 64.0028 -2.2630 274° West  Level FlightAware Approximate
Mon 09:19:00 AM 64.0099 -2.5490 273° West  Level FlightAware Approximate
Mon 09:20:00 AM 64.0164 -2.8351 273° West  Level FlightAware Approximate
Mon 09:21:00 AM 64.0224 -3.1214 273° West  Level FlightAware Approximate
Mon 09:22:00 AM 64.0278 -3.4078 273° West  Level FlightAware Approximate
Mon 09:23:00 AM 64.0326 -3.6943 272° West  Level FlightAware Approximate
Mon 09:24:00 AM 64.0369 -3.9809 272° West  Level FlightAware Approximate
Mon 09:25:00 AM 64.0406 -4.2675 272° West  Level FlightAware Approximate
Mon 09:26:00 AM 64.0438 -4.5543 272° West  Level FlightAware Approximate
Mon 09:27:00 AM 64.0464 -4.8411 271° West  Level FlightAware Approximate
Mon 09:28:00 AM 64.0484 -5.1279 271° West  Level FlightAware Approximate
Mon 09:29:00 AM 64.0498 -5.4148 271° West  Level FlightAware Approximate
Mon 09:30:00 AM 64.0507 -5.7017 271° West  Level FlightAware Approximate
Mon 09:31:00 AM 64.0510 -5.9886 270° West  Level FlightAware Approximate
Mon 09:32:00 AM 64.0508 -6.2756 270° West  Level FlightAware Approximate
Mon 09:33:00 AM 64.0500 -6.5625 270° West  Level FlightAware Approximate
Mon 09:34:00 AM 64.0486 -6.8494 270° West  Level FlightAware Approximate
Mon 09:35:00 AM 64.0467 -7.1362 269° West  Level FlightAware Approximate
Mon 09:36:00 AM 64.0442 -7.4230 269° West  Level FlightAware Approximate
Mon 09:37:00 AM 64.0411 -7.7098 269° West  Level FlightAware Approximate
Mon 09:38:00 AM 64.0375 -7.9965 268° West  Level FlightAware Approximate
Mon 09:39:00 AM 64.0333 -8.2831 268° West  Level FlightAware Approximate
Mon 09:40:00 AM 64.0285 -8.5696 268° West  Level FlightAware Approximate
Mon 09:41:00 AM 64.0232 -8.8560 268° West  Level FlightAware Approximate
Mon 09:42:00 AM 64.0173 -9.1423 267° West  Level FlightAware Approximate
Mon 09:43:00 AM 64.0108 -9.4284 267° West  Level FlightAware Approximate
Mon 09:44:00 AM 64.0038 -9.7145 267° West  Level FlightAware Approximate
Mon 09:45:00 AM 63.9962 -10.0003 267° West  Level FlightAware Approximate
Mon 09:46:00 AM 63.9881 -10.2861 266° West  Level FlightAware Approximate
Mon 09:47:00 AM 63.9794 -10.5716 266° West  Level FlightAware Approximate
Mon 09:48:00 AM 63.9701 -10.8570 266° West  Level FlightAware Approximate
Mon 09:49:00 AM 63.9603 -11.1421 266° West  Level FlightAware Approximate
Mon 09:50:00 AM 63.9499 -11.4271 265° West  Level FlightAware Approximate
Mon 09:51:00 AM 63.9390 -11.7119 265° West  Level FlightAware Approximate
Mon 09:52:00 AM 63.9275 -11.9964 265° West  Level FlightAware Approximate
Mon 09:53:00 AM 63.9155 -12.2806 265° West  Level FlightAware Approximate
Mon 09:54:00 AM 63.9028 -12.5647 264° West  Level FlightAware Approximate
Mon 09:55:00 AM 63.8897 -12.8484 264° West  Level FlightAware Approximate
Mon 09:56:00 AM 63.8759 -13.1319 264° West  Level FlightAware Approximate
Mon 09:57:00 AM 63.8617 -13.4151 264° West  Level FlightAware Approximate
Mon 09:58:00 AM 63.8468 -13.6981 263° West  Level FlightAware Approximate
Mon 09:59:00 AM 63.8315 -13.9807 263° West  Level FlightAware Approximate
Mon 10:00:00 AM 63.8155 -14.2630 263° West  Level FlightAware Approximate
Mon 10:01:00 AM 63.7990 -14.5450 263° West  Level FlightAware Approximate
Mon 10:02:00 AM 63.7820 -14.8266 262° West  Level FlightAware Approximate
Mon 10:03:00 AM 63.7644 -15.1079 262° West  Level FlightAware Approximate
Mon 10:04:00 AM 63.7463 -15.3888 262° West  Level FlightAware Approximate
Mon 10:05:00 AM 63.7276 -15.6694 262° West  Level FlightAware Approximate
Mon 10:06:00 AM 63.7084 -15.9496 261° West  Level FlightAware Approximate
Mon 10:07:00 AM 63.6887 -16.2294 261° West  Level FlightAware Approximate
Mon 10:08:00 AM 63.6684 -16.5089 261° West  Level FlightAware Approximate
Mon 10:09:00 AM 63.6475 -16.7879 261° West  Level FlightAware Approximate
Mon 10:10:00 AM 63.6261 -17.0665 260° West  Level FlightAware Approximate
Mon 10:11:00 AM 63.6042 -17.3447 260° West  Level FlightAware Approximate
Mon 10:12:00 AM 63.5817 -17.6224 260° West  Level FlightAware Approximate
Mon 10:13:00 AM 63.5588 -17.8997 260° West  Level FlightAware Approximate
Mon 10:14:00 AM 63.5352 -18.1765 259° West  Level FlightAware Approximate
Mon 10:15:00 AM 63.5112 -18.4529 259° West  Level FlightAware Approximate
Mon 10:16:00 AM 63.4866 -18.7288 259° West  Level FlightAware Approximate
Mon 10:17:00 AM 63.4614 -19.0043 259° West  Level FlightAware Approximate
Mon 10:18:00 AM 63.4358 -19.2792 258° West  Level FlightAware Approximate
Mon 10:19:00 AM 63.4096 -19.5537 258° West  Level FlightAware Approximate
Mon 10:20:00 AM 63.3829 -19.8276 258° West  Level FlightAware Approximate
Mon 10:21:00 AM 63.3557 -20.1010 258° West  Level FlightAware Approximate
Mon 10:22:00 AM 63.3279 -20.3739 257° West  Level FlightAware Approximate
Mon 10:23:00 AM 63.2997 -20.6463 257° West  Level FlightAware Approximate
Mon 10:24:00 AM 63.2709 -20.9182 257° West  Level FlightAware Approximate
Mon 10:25:00 AM 63.2416 -21.1894 257° West  Level FlightAware Approximate
Mon 10:26:00 AM 63.2118 -21.4602 256° West  Level FlightAware Approximate
Mon 10:27:00 AM 63.1814 -21.7304 256° West  Level FlightAware Approximate
Mon 10:28:00 AM 63.1506 -22.0000 256° West  Level FlightAware Approximate
Mon 10:29:00 AM 63.1192 -22.2690 256° West  Level FlightAware Approximate
Mon 10:30:00 AM 63.0874 -22.5374 255° West  Level FlightAware Approximate
Mon 10:31:00 AM 63.0550 -22.8053 255° West  Level FlightAware Approximate
Mon 10:32:00 AM 63.0221 -23.0725 255° West  Level FlightAware Approximate
Mon 10:33:00 AM 62.9887 -23.3392 255° West  Level FlightAware Approximate
Mon 10:34:00 AM 62.9549 -23.6052 254° West  Level FlightAware Approximate
Mon 10:35:00 AM 62.9205 -23.8706 254° West  Level FlightAware Approximate
Mon 10:36:00 AM 62.8856 -24.1354 254° West  Level FlightAware Approximate
Mon 10:37:00 AM 62.8502 -24.3995 254° West  Level FlightAware Approximate
Mon 10:38:00 AM 62.8144 -24.6631 254° West  Level FlightAware Approximate
Mon 10:39:00 AM 62.7780 -24.9259 253° West  Level FlightAware Approximate
Mon 10:40:00 AM 62.7412 -25.1881 253° West  Level FlightAware Approximate
Mon 10:41:00 AM 62.7038 -25.4497 253° West  Level FlightAware Approximate
Mon 10:42:00 AM 62.6660 -25.7106 253° West  Level FlightAware Approximate
Mon 10:43:00 AM 62.6277 -25.9708 252° West  Level FlightAware Approximate
Mon 10:44:00 AM 62.5889 -26.2304 252° West  Level FlightAware Approximate
Mon 10:45:00 AM 62.5497 -26.4892 252° West  Level FlightAware Approximate
Mon 10:46:00 AM 62.5099 -26.7474 252° West  Level FlightAware Approximate
Mon 10:47:00 AM 62.4697 -27.0049 251° West  Level FlightAware Approximate
Mon 10:48:00 AM 62.4291 -27.2617 251° West  Level FlightAware Approximate
Mon 10:49:00 AM 62.3879 -27.5178 251° West  Level FlightAware Approximate
Mon 10:50:00 AM 62.3463 -27.7731 251° West  Level FlightAware Approximate
Mon 10:51:00 AM 62.3042 -28.0278 251° West  Level FlightAware Approximate
Mon 10:52:00 AM 62.2616 -28.2818 250° West  Level FlightAware Approximate
Mon 10:53:00 AM 62.2186 -28.5350 250° West  Level FlightAware Approximate
Mon 10:54:00 AM 62.1751 -28.7875 250° West  Level FlightAware Approximate
Mon 10:55:00 AM 62.1312 -29.0393 250° West  Level FlightAware Approximate
Mon 10:56:00 AM 62.0868 -29.2903 249° West  Level FlightAware Approximate
Mon 10:57:00 AM 62.0419 -29.5407 249° West  Level FlightAware Approximate
Mon 10:58:00 AM 61.9966 -29.7902 249° West  Level FlightAware Approximate
Mon 10:59:00 AM 61.9509 -30.0391 249° West  Level FlightAware Approximate
Mon 11:00:00 AM 61.9047 -30.2871 249° West  Level FlightAware Approximate
Mon 11:01:00 AM 61.8581 -30.5345 248° West  Level FlightAware Approximate
Mon 11:02:00 AM 61.8110 -30.7810 248° West  Level FlightAware Approximate
Mon 11:03:00 AM 61.7635 -31.0268 248° West  Level FlightAware Approximate
Mon 11:04:00 AM 61.7155 -31.2719 248° West  Level FlightAware Approximate
Mon 11:05:00 AM 61.6671 -31.5162 247° West  Level FlightAware Approximate
Mon 11:06:00 AM 61.6183 -31.7597 247° West  Level FlightAware Approximate
Mon 11:07:00 AM 61.5690 -32.0035 247° West  Level FlightAware Approximate
Mon 11:08:00 AM 61.5195 -32.2457 247° West  Level FlightAware Approximate
Mon 11:09:00 AM 61.4697 -32.4871 247° West  Level FlightAware Approximate
Mon 11:10:00 AM 61.4194 -32.7278 246° West  Level FlightAware Approximate
Mon 11:11:00 AM 61.3686 -32.9676 246° West  Level FlightAware Approximate
Mon 11:12:00 AM 61.3175 -33.2067 246° West  Level FlightAware Approximate
Mon 11:13:00 AM 61.2659 -33.4450 246° West  Level FlightAware Approximate
Mon 11:14:00 AM 61.2140 -33.6826 246° West  Level FlightAware Approximate
Mon 11:15:00 AM 61.1616 -33.9193 245° Southwest  Level FlightAware Approximate
Mon 11:16:00 AM 61.1088 -34.1553 245° Southwest  Level FlightAware Approximate
Mon 11:17:00 AM 61.0555 -34.3904 245° Southwest  Level FlightAware Approximate
Mon 11:18:00 AM 61.0019 -34.6248 245° Southwest  Level FlightAware Approximate
Mon 11:19:00 AM 60.9479 -34.8584 245° Southwest  Level FlightAware Approximate
Mon 11:20:00 AM 60.8935 -35.0912 244° Southwest  Level FlightAware Approximate
Mon 11:21:00 AM 60.8386 -35.3232 244° Southwest  Level FlightAware Approximate
Mon 11:22:00 AM 60.7834 -35.5544 244° Southwest  Level FlightAware Approximate
Mon 11:23:00 AM 60.7278 -35.7847 244° Southwest  Level FlightAware Approximate
Mon 11:24:00 AM 60.6718 -36.0143 244° Southwest  Level FlightAware Approximate
Mon 11:25:00 AM 60.6154 -36.2431 243° Southwest  Level FlightAware Approximate
Mon 11:26:00 AM 60.5586 -36.4711 243° Southwest  Level FlightAware Approximate
Mon 11:27:00 AM 60.5014 -36.6983 243° Southwest  Level FlightAware Approximate
Mon 11:28:00 AM 60.4438 -36.9247 243° Southwest  Level FlightAware Approximate
Mon 11:29:00 AM 60.3859 -37.1503 243° Southwest  Level FlightAware Approximate
Mon 11:30:00 AM 60.3275 -37.3751 242° Southwest  Level FlightAware Approximate
Mon 11:31:00 AM 60.2688 -37.5990 242° Southwest  Level FlightAware Approximate
Mon 11:32:00 AM 60.2097 -37.8222 242° Southwest  Level FlightAware Approximate
Mon 11:33:00 AM 60.1503 -38.0446 242° Southwest  Level FlightAware Approximate
Mon 11:34:00 AM 60.0905 -38.2661 242° Southwest  Level FlightAware Approximate
Mon 11:35:00 AM 60.0303 -38.4869 241° Southwest  Level FlightAware Approximate
Mon 11:36:00 AM 59.9697 -38.7068 241° Southwest  Level FlightAware Approximate
Mon 11:37:00 AM 59.9088 -38.9260 241° Southwest  Level FlightAware Approximate
Mon 11:38:00 AM 59.8475 -39.1443 241° Southwest  Level FlightAware Approximate
Mon 11:39:00 AM 59.7858 -39.3619 241° Southwest  Level FlightAware Approximate
Mon 11:40:00 AM 59.7238 -39.5786 240° Southwest  Level FlightAware Approximate
Mon 11:41:00 AM 59.6614 -39.7945 240° Southwest  Level FlightAware Approximate
Mon 11:42:00 AM 59.5987 -40.0096 240° Southwest  Level FlightAware Approximate
Mon 11:43:00 AM 59.5356 -40.2239 240° Southwest  Level FlightAware Approximate
Mon 11:44:00 AM 59.4722 -40.4375 240° Southwest  Level FlightAware Approximate
Mon 11:45:00 AM 59.4085 -40.6502 240° Southwest  Level FlightAware Approximate
Mon 11:46:00 AM 59.3443 -40.8621 239° Southwest  Level FlightAware Approximate
Mon 11:47:00 AM 59.2799 -41.0732 239° Southwest  Level FlightAware Approximate
Mon 11:48:00 AM 59.2151 -41.2835 239° Southwest  Level FlightAware Approximate
Mon 11:49:00 AM 59.1500 -41.4930 239° Southwest  Level FlightAware Approximate
Mon 11:50:00 AM 59.0845 -41.7017 239° Southwest  Level FlightAware Approximate
Mon 11:51:00 AM 59.0187 -41.9096 238° Southwest  Level FlightAware Approximate
Mon 11:52:00 AM 58.9526 -42.1167 238° Southwest  Level FlightAware Approximate
Mon 11:53:00 AM 58.8861 -42.3231 238° Southwest  Level FlightAware Approximate
Mon 11:54:00 AM 58.8193 -42.5286 238° Southwest  Level FlightAware Approximate
Mon 11:55:00 AM 58.7522 -42.7333 238° Southwest  Level FlightAware Approximate
Mon 11:56:00 AM 58.6848 -42.9373 238° Southwest  Level FlightAware Approximate
Mon 11:57:00 AM 58.6170 -43.1405 237° Southwest  Level FlightAware Approximate
Mon 11:58:00 AM 58.5489 -43.3428 237° Southwest  Level FlightAware Approximate
Mon 11:59:00 AM 58.4805 -43.5444 237° Southwest  Level FlightAware Approximate
Mon 12:00:00 PM 58.4118 -43.7452 237° Southwest  Level FlightAware Approximate
Mon 12:01:00 PM 58.3428 -43.9452 237° Southwest  Level FlightAware Approximate
Mon 12:02:00 PM 58.2734 -44.1445 237° Southwest  Level FlightAware Approximate
Mon 12:03:00 PM 58.2038 -44.3429 236° Southwest  Level FlightAware Approximate
Mon 12:04:00 PM 58.1339 -44.5406 236° Southwest  Level FlightAware Approximate
Mon 12:05:00 PM 58.0636 -44.7375 236° Southwest  Level FlightAware Approximate
Mon 12:06:00 PM 57.9930 -44.9336 236° Southwest  Level FlightAware Approximate
Mon 12:07:00 PM 57.9222 -45.1290 236° Southwest  Level FlightAware Approximate
Mon 12:08:00 PM 57.8510 -45.3235 236° Southwest  Level FlightAware Approximate
Mon 12:09:00 PM 57.7796 -45.5173 235° Southwest  Level FlightAware Approximate
Mon 12:10:00 PM 57.7078 -45.7104 235° Southwest  Level FlightAware Approximate
Mon 12:11:00 PM 57.6358 -45.9027 235° Southwest  Level FlightAware Approximate
Mon 12:12:00 PM 57.5635 -46.0942 235° Southwest  Level FlightAware Approximate
Mon 12:13:00 PM 57.4908 -46.2850 235° Southwest  Level FlightAware Approximate
Mon 12:14:00 PM 57.4179 -46.4749 235° Southwest  Level FlightAware Approximate
Mon 12:15:00 PM 57.3447 -46.6642 234° Southwest  Level FlightAware Approximate
Mon 12:16:00 PM 57.2713 -46.8527 234° Southwest  Level FlightAware Approximate
Mon 12:17:00 PM 57.1975 -47.0404 234° Southwest  Level FlightAware Approximate
Mon 12:18:00 PM 57.1235 -47.2274 234° Southwest  Level FlightAware Approximate
Mon 12:19:00 PM 57.0492 -47.4136 234° Southwest  Level FlightAware Approximate
Mon 12:20:00 PM 56.9746 -47.5991 234° Southwest  Level FlightAware Approximate
Mon 12:21:00 PM 56.8997 -47.7839 233° Southwest  Level FlightAware Approximate
Mon 12:22:00 PM 56.8246 -47.9679 233° Southwest  Level FlightAware Approximate
Mon 12:23:00 PM 56.7492 -48.1511 233° Southwest  Level FlightAware Approximate
Mon 12:24:00 PM 56.6735 -48.3337 233° Southwest  Level FlightAware Approximate
Mon 12:25:00 PM 56.5976 -48.5155 233° Southwest  Level FlightAware Approximate
Mon 12:26:00 PM 56.5214 -48.6965 233° Southwest  Level FlightAware Approximate
Mon 12:27:00 PM 56.4450 -48.8769 233° Southwest  Level FlightAware Approximate
Mon 12:28:00 PM 56.3682 -49.0565 232° Southwest  Level FlightAware Approximate
Mon 12:29:00 PM 56.2912 -49.2354 232° Southwest  Level FlightAware Approximate
Mon 12:30:00 PM 56.2140 -49.4136 232° Southwest  Level FlightAware Approximate
Mon 12:31:00 PM 56.1365 -49.5910 232° Southwest  Level FlightAware Approximate
Mon 12:32:00 PM 56.0588 -49.7678 232° Southwest  Level FlightAware Approximate
Mon 12:33:00 PM 55.9808 -49.9438 232° Southwest  Level FlightAware Approximate
Mon 12:34:00 PM 55.9025 -50.1191 232° Southwest  Level FlightAware Approximate
Mon 12:35:00 PM 55.8241 -50.2937 231° Southwest  Level FlightAware Approximate
Mon 12:36:00 PM 55.7453 -50.4676 231° Southwest  Level FlightAware Approximate
Mon 12:37:00 PM 55.6663 -50.6408 231° Southwest  Level FlightAware Approximate
Mon 12:38:00 PM 55.5871 -50.8134 231° Southwest  Level FlightAware Approximate
Mon 12:39:00 PM 55.5076 -50.9852 231° Southwest  Level FlightAware Approximate
Mon 12:40:00 PM 55.4279 -51.1563 231° Southwest  Level FlightAware Approximate
Mon 12:41:00 PM 55.3480 -51.3267 231° Southwest  Level FlightAware Approximate
Mon 12:42:00 PM 55.2678 -51.4964 230° Southwest  Level FlightAware Approximate
Mon 12:43:00 PM 55.1874 -51.6655 230° Southwest  Level FlightAware Approximate
Mon 12:44:00 PM 55.1067 -51.8339 230° Southwest  Level FlightAware Approximate
Mon 12:45:00 PM 55.0258 -52.0016 230° Southwest  Level FlightAware Approximate
Mon 12:46:00 PM 54.9447 -52.1686 230° Southwest  Level FlightAware Approximate
Mon 12:47:00 PM 54.8634 -52.3349 230° Southwest  Level FlightAware Approximate
Mon 12:48:00 PM 54.7818 -52.5006 230° Southwest  Level FlightAware Approximate
Mon 12:49:00 PM 54.7001 -52.6656 229° Southwest  Level FlightAware Approximate
Mon 12:50:00 PM 54.6180 -52.8299 229° Southwest  Level FlightAware Approximate
Mon 12:51:00 PM 54.5358 -52.9936 229° Southwest  Level FlightAware Approximate
Mon 12:52:00 PM 54.4534 -53.1566 229° Southwest  Level FlightAware Approximate
Mon 12:53:00 PM 54.3707 -53.3190 229° Southwest  Level FlightAware Approximate
Mon 12:54:00 PM 54.2878 -53.4807 229° Southwest  Level FlightAware Approximate
Mon 12:55:00 PM 54.2047 -53.6418 229° Southwest  Level FlightAware Approximate
Mon 12:56:00 PM 54.1214 -53.8022 228° Southwest  Level FlightAware Approximate
Mon 12:57:00 PM 54.0378 -53.9619 228° Southwest  Level FlightAware Approximate
Mon 12:58:00 PM 53.9541 -54.1211 228° Southwest  Level FlightAware Approximate
Mon 12:59:00 PM 53.8701 -54.2796 228° Southwest  Level FlightAware Approximate
Mon 01:00:00 PM 53.7860 -54.4374 228° Southwest  Level FlightAware Approximate
Mon 01:01:00 PM 53.7014 -54.5943 227° Southwest  Level FlightAware Approximate
Mon 01:02:00 PM 53.6158 -54.7493 228° Southwest  Level FlightAware Approximate
Mon 01:03:00 PM 53.5315 -54.9060 228° Southwest  Level FlightAware Approximate
Mon 01:04:00 PM 53.4470 -55.0620 228° Southwest  Level FlightAware Approximate
Mon 01:05:00 PM 53.3623 -55.2174 228° Southwest  Level FlightAware Approximate
Mon 01:06:00 PM 53.2774 -55.3722 227° Southwest  Level FlightAware Approximate
Mon 01:07:00 PM 53.1922 -55.5264 227° Southwest  Level FlightAware Approximate
Mon 01:08:00 PM 53.1069 -55.6800 227° Southwest  Level FlightAware Approximate
Mon 01:09:00 PM 53.0214 -55.8330 227° Southwest  Level FlightAware Approximate
Mon 01:10:00 PM 52.9357 -55.9853 227° Southwest  Level FlightAware Approximate
Mon 01:11:00 PM 52.8498 -56.1371 227° Southwest  Level FlightAware Approximate
Mon 01:12:00 PM 52.7637 -56.2882 227° Southwest  Level FlightAware Approximate
Mon 01:13:00 PM 52.6774 -56.4388 227° Southwest  Level FlightAware Approximate
Mon 01:14:00 PM 52.5909 -56.5887 227° Southwest  Level FlightAware Approximate
Mon 01:15:00 PM 52.5042 -56.7381 226° Southwest  Level FlightAware Approximate
Mon 01:16:00 PM 52.4174 -56.8869 226° Southwest  Level FlightAware Approximate
Mon 01:17:00 PM 52.3303 -57.0351 226° Southwest  Level FlightAware Approximate
Mon 01:18:00 PM 52.2431 -57.1827 226° Southwest  Level FlightAware Approximate
Mon 01:19:00 PM 52.1556 -57.3296 226° Southwest  Level FlightAware Approximate
Mon 01:20:00 PM 52.0676 -57.4755 226° Southwest  Level FlightAware Approximate
Mon 01:21:00 PM 51.9795 -57.6208 225° Southwest  Level FlightAware Approximate
Mon 01:22:00 PM 51.8912 -57.7656 225° Southwest  Level FlightAware Approximate
Mon 01:23:00 PM 51.8028 -57.9098 225° Southwest  Level FlightAware Approximate
Mon 01:24:00 PM 51.7141 -58.0535 225° Southwest  Level FlightAware Approximate
Mon 01:25:00 PM 51.6253 -58.1965 225° Southwest  Level FlightAware Approximate
Mon 01:25:18 PM 53.1500 -53.9167 222° Southwest 450 518 36,000  Level Gander Center
Mon 01:26:00 PM 51.5363 -58.3391 225° Southwest  Level FlightAware Approximate
Mon 01:26:18 PM 53.0667 -54.0667 227° Southwest 440 506 36,000  Level Gander Center
Mon 01:27:00 PM 51.4472 -58.4810 225° Southwest  Level FlightAware Approximate
Mon 01:27:18 PM 53.0000 -54.2167 234° Southwest 430 495 36,000  Level Gander Center
Mon 01:28:00 PM 51.3578 -58.6224 225° Southwest  Level FlightAware Approximate
Mon 01:28:18 PM 52.9333 -54.3667 234° Southwest 420 483 36,000  Level Gander Center
Mon 01:29:00 PM 51.2683 -58.7633 225° Southwest  Level FlightAware Approximate
Mon 01:29:06 PM 52.8667 -54.4833 227° Southwest 420 483 36,000  Level Gander Center
Mon 01:30:00 PM 51.1780 -58.8918 222° Southwest  Level Estimated
Mon 01:30:06 PM 52.8000 -54.6333 234° Southwest 420 483 36,000  Level Gander Center
Mon 01:31:18 PM 52.6833 -54.8500 228° Southwest 420 483 36,000  Level Gander Center
Mon 01:32:18 PM 52.6167 -55.0000 234° Southwest 430 495 36,000  Level Gander Center
Mon 01:33:18 PM 52.5333 -55.1500 228° Southwest 430 495 36,000  Level Gander Center
Mon 01:34:18 PM 52.4667 -55.3000 234° Southwest 430 495 36,000  Level Gander Center
Mon 01:35:18 PM 52.3833 -55.4500 228° Southwest 430 495 36,000  Level Gander Center
Mon 01:36:06 PM 52.3000 -55.5667 221° Southwest 430 495 36,000  Level Gander Center
Mon 01:37:06 PM 52.2333 -55.7167 234° Southwest 440 506 36,000  Level Gander Center
Mon 01:38:06 PM 52.1500 -55.8500 224° Southwest 430 495 36,000  Level Gander Center
Mon 01:39:33 PM 52.0333 -56.0667 229° Southwest 440 506 36,000  Level Moncton Center
Mon 01:40:18 PM 51.9667 -56.1833 227° Southwest 430 495 36,000  Level Gander Center
Mon 01:41:18 PM 51.8833 -56.3167 225° Southwest 430 495 36,000  Level Gander Center
Mon 01:42:33 PM 51.7833 -56.4833 226° Southwest 430 495 36,000  Level Moncton Center
Mon 01:43:33 PM 51.7000 -56.6333 228° Southwest 430 495 36,000  Level Moncton Center
Mon 01:44:06 PM 51.6500 -56.7333 231° Southwest 430 495 36,000  Level Gander Center
Mon 01:45:06 PM 51.5667 -56.8667 225° Southwest 450 518 36,000  Level Gander Center
Mon 01:46:06 PM 51.5000 -57.0167 235° Southwest 430 495 36,000  Level Gander Center
Mon 01:47:06 PM 51.4167 -57.1500 225° Southwest 440 506 36,000  Level Gander Center
Mon 01:48:18 PM 51.3000 -57.3167 222° Southwest 440 506 36,000  Level Gander Center
Mon 01:49:18 PM 51.2333 -57.4667 235° Southwest 440 506 36,000  Level Gander Center
Mon 01:50:18 PM 51.1500 -57.6000 225° Southwest 430 495 36,000  Level Gander Center
Mon 01:51:18 PM 51.0667 -57.7500 229° Southwest 430 495 36,000  Level Gander Center
Mon 01:52:18 PM 50.9667 -57.8833 220° Southwest 440 506 36,000  Level Gander Center
Mon 01:53:06 PM 50.9167 -58.0000 236° Southwest 440 506 36,000  Level Gander Center
Mon 01:54:18 PM 50.8167 -58.1833 229° Southwest 440 506 36,000  Level Gander Center
Mon 01:56:06 PM 50.6500 -58.4333 224° Southwest 440 506 36,000  Level Gander Center
Mon 01:57:18 PM 50.5500 -58.6000 227° Southwest 440 506 36,000  Level Gander Center
Mon 01:58:06 PM 50.5000 -58.7000 232° Southwest 440 506 36,000  Level Gander Center
Mon 02:00:18 PM 50.3000 -59.0000 224° Southwest 440 506 36,000  Level Gander Center
Mon 02:01:18 PM 50.2333 -59.1333 232° Southwest 440 506 36,000  Level Gander Center
Mon 02:02:18 PM 50.1500 -59.3000 232° Southwest 440 506 36,000  Level Gander Center
Mon 02:03:18 PM 50.0667 -59.4333 226° Southwest 440 506 36,000  Level Gander Center
Mon 02:04:18 PM 49.9833 -59.6000 232° Southwest 440 506 36,000  Level Gander Center
Mon 02:05:18 PM 49.9000 -59.7167 222° Southwest 430 495 36,000  Level Gander Center
Mon 02:06:18 PM 49.8333 -59.8833 238° Southwest 440 506 36,000  Level Gander Center
Mon 02:07:18 PM 49.7500 -60.0167 226° Southwest 440 506 36,000 300 Level Gander Center
Mon 02:08:18 PM 49.6667 -60.1667 229° Southwest 450 518 36,600 900 Climbing Gander Center
Mon 02:09:18 PM 49.5833 -60.3000 226° Southwest 440 506 37,800 700 Climbing Gander Center
Mon 02:10:18 PM 49.5167 -60.4333 232° Southwest 440 506 38,000 100 Climbing Gander Center
Mon 02:11:18 PM 49.4333 -60.5833 230° Southwest 440 506 38,000  Level Gander Center
Mon 02:12:18 PM 49.3500 -60.7167 226° Southwest 430 495 38,000  Level Gander Center
Mon 02:13:18 PM 49.2667 -60.8667 230° Southwest 430 495 38,000  Level Gander Center
Mon 02:14:18 PM 49.1833 -61.0000 226° Southwest 430 495 38,000  Level Gander Center
Mon 02:15:18 PM 49.1000 -61.1333 226° Southwest 430 495 38,000  Level Gander Center
Mon 02:16:18 PM 49.0333 -61.2500 229° Southwest 430 495 38,000  Level Gander Center
Mon 02:17:18 PM 48.9500 -61.4167 233° Southwest 430 495 38,000  Level Gander Center
Mon 02:18:18 PM 48.8667 -61.5333 223° Southwest 430 495 38,000  Level Gander Center
Mon 02:19:18 PM 48.8000 -61.6667 233° Southwest 420 483 38,000  Level Gander Center
Mon 02:20:18 PM 48.7167 -61.8167 230° Southwest 430 495 38,000  Level Gander Center
Mon 02:21:18 PM 48.6333 -61.9333 223° Southwest 420 483 38,000  Level Gander Center
Mon 02:22:18 PM 48.5500 -62.0667 227° Southwest 420 483 38,000  Level Gander Center
Mon 02:23:18 PM 48.4833 -62.1833 229° Southwest 430 495 38,000  Level Gander Center
Mon 02:24:18 PM 48.4000 -62.3333 230° Southwest 430 495 38,000  Level Gander Center
Mon 02:25:18 PM 48.3000 -62.4667 222° Southwest 430 495 38,000  Level Gander Center
Mon 02:26:18 PM 48.2167 -62.6167 230° Southwest 440 506 38,000  Level Gander Center
Mon 02:27:33 PM 48.1167 -62.7667 225° Southwest 440 506 38,000  Level Moncton Center
Mon 02:28:33 PM 48.0333 -62.9000 227° Southwest 440 506 38,000  Level Moncton Center
Mon 02:29:33 PM 47.9667 -63.0167 230° Southwest 440 506 38,000  Level Moncton Center
Mon 02:30:18 PM 47.9000 -63.1333 230° Southwest 440 506 38,000  Level Gander Center
Mon 02:31:18 PM 47.8167 -63.2667 227° Southwest 440 506 38,000  Level Gander Center
Mon 02:32:18 PM 47.7333 -63.4000 227° Southwest 440 506 38,000  Level Gander Center
Mon 02:33:18 PM 47.6333 -63.5333 222° Southwest 440 506 38,000  Level Gander Center
Mon 02:34:18 PM 47.5500 -63.6500 223° Southwest 430 495 38,000  Level Gander Center
Mon 02:35:18 PM 47.4667 -63.7833 227° Southwest 440 506 38,000  Level Gander Center
Mon 02:36:18 PM 47.4000 -63.9167 234° Southwest 430 495 38,000  Level Gander Center
Mon 02:37:18 PM 47.3167 -64.0333 224° Southwest 440 506 38,000  Level Gander Center
Mon 02:38:18 PM 47.2333 -64.1667 227° Southwest 440 506 38,000  Level Gander Center
Mon 02:39:18 PM 47.1333 -64.3000 222° Southwest 440 506 38,000  Level Gander Center
Mon 02:40:18 PM 47.0500 -64.4167 224° Southwest 440 506 38,000  Level Gander Center
Mon 02:41:18 PM 46.9667 -64.5667 231° Southwest 430 495 38,000  Level Gander Center
Mon 02:42:18 PM 46.8833 -64.6833 224° Southwest 430 495 38,000  Level Gander Center
Mon 02:43:18 PM 46.8000 -64.8167 228° Southwest 440 506 38,000  Level Gander Center
Mon 02:44:33 PM 46.7000 -64.9833 229° Southwest 440 506 38,000  Level Moncton Center
Mon 02:45:33 PM 46.6000 -65.1000 219° Southwest 440 506 38,000  Level Moncton Center
Mon 02:46:33 PM 46.5167 -65.2167 224° Southwest 440 506 38,000  Level Moncton Center
Mon 02:52:07 PM 46.0556 -65.9132 225° Southwest 455 524 38,000  Level FlightAware ADS-B
Mon 02:52:48 PM 45.9712 -66.0327 225° Southwest 455 524 38,000  Level FlightAware ADS-B
Mon 02:54:05 PM 45.8695 -66.1761 224° Southwest 453 521 38,000  Level FlightAware ADS-B
Mon 02:55:08 PM 45.7682 -66.3181 224° Southwest 452 520 38,000  Level FlightAware ADS-B
Mon 02:55:57 PM 45.6941 -66.4214 224° Southwest 451 519 38,000  Level FlightAware ADS-B
Mon 02:56:48 PM 45.6230 -66.5202 224° Southwest 449 517 38,000  Level FlightAware ADS-B
Mon 02:57:25 PM 45.5577 -66.6106 224° Southwest 448 516 38,000  Level FlightAware ADS-B
Mon 02:57:56 PM 45.5123 -66.6733 224° Southwest 445 512 38,000  Level FlightAware ADS-B
Mon 02:59:06 PM 45.4091 -66.8154 224° Southwest 445 512 38,000  Level FlightAware ADS-B
Mon 03:02:49 PM 45.0811 -67.2615 224° Southwest 439 505 38,000  Level FlightAware ADS-B
Mon 03:03:27 PM 45.0278 -67.3333 224° Southwest 437 503 38,000  Level FlightAware ADS-B
Mon 03:03:57 PM 44.9819 -67.3950 224° Southwest 438 504 38,000  Level FlightAware ADS-B
Mon 03:04:27 PM 44.9620 -67.4217 224° Southwest 438 504 38,000  Level FlightAware ADS-B
Mon 03:04:57 PM 44.8976 -67.5080 224° Southwest 437 503 38,000  Level FlightAware ADS-B
Mon 03:05:22 PM 44.8556 -67.5640 223° Southwest 438 504 38,000  Level FlightAware ADS-B
Mon 03:05:58 PM 44.8045 -67.6320 223° Southwest 438 504 38,000  Level FlightAware ADS-B
Mon 03:06:38 PM 44.7494 -67.7051 223° Southwest 437 503 38,000  Level FlightAware ADS-B
Mon 03:07:09 PM 44.7010 -67.7692 223° Southwest 435 501 38,000  Level FlightAware ADS-B
Mon 03:07:49 PM 44.6458 -67.8423 223° Southwest 432 497 38,000  Level FlightAware ADS-B
Mon 03:08:19 PM 44.5991 -67.9037 223° Southwest 429 494 38,000  Level FlightAware ADS-B
Mon 03:08:59 PM 44.5414 -67.9796 223° Southwest 426 490 38,000  Level FlightAware ADS-B
Mon 03:09:32 PM 44.4963 -68.0389 223° Southwest 425 489 38,000  Level FlightAware ADS-B
Mon 03:10:08 PM 44.4431 -68.1084 223° Southwest 425 489 38,000  Level FlightAware ADS-B
Mon 03:10:39 PM 44.4039 -68.1596 223° Southwest 426 490 38,000  Level FlightAware ADS-B
Mon 03:11:17 PM 44.3507 -68.2289 223° Southwest 427 491 38,000  Level FlightAware ADS-B
Mon 03:11:49 PM 44.3013 -68.2930 223° Southwest 426 490 38,000  Level FlightAware ADS-B
Mon 03:12:27 PM 44.2417 -68.3701 223° Southwest 426 490 38,000  Level FlightAware ADS-B
Mon 03:12:57 PM 44.1987 -68.4257 223° Southwest 426 490 38,000  Level FlightAware ADS-B
Mon 03:13:30 PM 44.1507 -68.4876 223° Southwest 427 491 38,000  Level FlightAware ADS-B
Mon 03:14:01 PM 44.1069 -68.5440 223° Southwest 427 491 38,000  Level FlightAware ADS-B
Mon 03:14:40 PM 44.0517 -68.6149 223° Southwest 427 491 38,000  Level FlightAware ADS-B (NHT / EGWU)
Mon 03:15:58 PM 43.9429 -68.7540 223° Southwest 424 488 38,000  Level FlightAware ADS-B (NHT / EGWU)
Mon 03:17:11 PM 43.8329 -68.8938 223° Southwest 425 489 38,000  Level FlightAware ADS-B (NHT / EGWU)
Mon 03:17:42 PM 43.7890 -68.9494 222° Southwest 425 489 38,000  Level FlightAware ADS-B (NHT / EGWU)
Mon 03:18:22 PM 43.7340 -69.0190 223° Southwest 426 490 38,000  Level FlightAware ADS-B (NHT / EGWU)
Mon 03:18:53 PM 43.6845 -69.0814 223° Southwest 430 495 38,000  Level FlightAware ADS-B (NHT / EGWU)
Mon 03:19:08 PM 43.6626 -69.1089 223° Southwest 423 487 38,000  Level FlightAware ADS-B (KASH)
Mon 03:19:47 PM 43.6061 -69.1799 222° Southwest 428 493 38,000  Level FlightAware ADS-B (NHT / EGWU)
Mon 03:20:18 PM 43.5598 -69.2381 222° Southwest 425 489 38,000  Level FlightAware ADS-B (NHT / EGWU)
Mon 03:20:23 PM 43.5530 -69.2466 223° Southwest 418 481 38,000  Level FlightAware ADS-B (KASH)
Mon 03:20:48 PM 43.5168 -69.2917 222° Southwest 423 487 38,000  Level FlightAware ADS-B
Mon 03:21:23 PM 43.4669 -69.3541 222° Southwest 423 487 38,000  Level FlightAware ADS-B (NHT / EGWU)
Mon 03:21:32 PM 43.4527 -69.3718 223° Southwest 417 480 38,000  Level FlightAware ADS-B (KASH)
Mon 03:21:48 PM 43.4296 -69.4006 223° Southwest 417 480 38,000  Level FlightAware ADS-B (KASH)
Mon 03:22:03 PM 43.4077 -69.4278 223° Southwest 417 480 38,000  Level FlightAware ADS-B (KASH)
Mon 03:22:29 PM 43.3703 -69.4741 223° Southwest 417 480 38,000  Level FlightAware ADS-B (KASH)
Mon 03:23:03 PM 43.3212 -69.5353 222° Southwest 421 484 38,000  Level FlightAware ADS-B (NHT / EGWU)
Mon 03:23:40 PM 43.2683 -69.6006 222° Southwest 421 484 38,000  Level FlightAware ADS-B
Mon 03:23:50 PM 43.2536 -69.6189 223° Southwest 414 476 38,000  Level FlightAware ADS-B (KASH)
Mon 03:24:08 PM 43.2280 -69.6503 223° Southwest 414 476 38,000  Level FlightAware ADS-B (KASH)
Mon 03:24:39 PM 43.1840 -69.7045 222° Southwest 421 484 38,000  Level FlightAware ADS-B
Mon 03:24:54 PM 43.1612 -69.7326 223° Southwest 415 478 38,000  Level FlightAware ADS-B (KASH)
Mon 03:25:29 PM 43.1176 -69.7861 222° Southwest 421 484 38,000  Level FlightAware ADS-B
Mon 03:25:59 PM 43.0708 -69.8433 222° Southwest 422 486 38,000  Level FlightAware ADS-B
Mon 03:26:10 PM 43.0507 -69.8680 223° Southwest 416 479 38,000  Level FlightAware ADS-B (KASH)
Mon 03:26:31 PM 43.0200 -69.9055 223° Southwest 417 480 38,000  Level FlightAware ADS-B (KASH)
Mon 03:27:02 PM 42.9788 -69.9557 222° Southwest 421 484 38,000  Level FlightAware ADS-B (NHT / EGWU)
Mon 03:27:30 PM 42.9345 -70.0097 223° Southwest 415 478 38,000  Level FlightAware ADS-B (KASH)
Mon 03:27:49 PM 42.9071 -70.0430 223° Southwest 413 475 38,000  Level FlightAware ADS-B (KASH)
Mon 03:28:16 PM 42.8682 -70.0902 222° Southwest 419 482 38,000  Level FlightAware ADS-B
Mon 03:28:46 PM 42.8250 -70.1426 223° Southwest 413 475 38,000  Level FlightAware ADS-B (KASH)
Mon 03:29:20 PM 42.7768 -70.2008 222° Southwest 420 483 38,000  Level FlightAware ADS-B (NHT / EGWU)
Mon 03:29:50 PM 42.7331 -70.2535 222° Southwest 421 484 38,000  Level FlightAware ADS-B (NHT / EGWU)
Mon 03:30:22 PM 42.6865 -70.3096 222° Southwest 422 486 38,000  Level FlightAware ADS-B (NHT / EGWU)
Mon 03:30:56 PM 42.6354 -70.3711 222° Southwest 416 479 38,000  Level FlightAware ADS-B (KASH)
Mon 03:31:28 PM 42.5885 -70.4273 222° Southwest 421 484 38,000  Level FlightAware ADS-B
Mon 03:31:59 PM 42.5434 -70.4814 222° Southwest 426 490 38,000  Level FlightAware ADS-B (KASH)
Mon 03:32:17 PM 42.5169 -70.5131 221° Southwest 427 491 38,000  Level FlightAware ADS-B (KASH)
Mon 03:32:48 PM 42.4730 -70.5654 221° Southwest 428 493 38,000  Level FlightAware ADS-B (NHT / EGWU)
Mon 03:33:20 PM 42.4247 -70.6228 221° Southwest 429 494 38,000  Level FlightAware ADS-B (NHT / EGWU)
Mon 03:33:50 PM 42.3791 -70.6769 221° Southwest 432 497 38,000  Level FlightAware ADS-B (NHT / EGWU)
Mon 03:34:21 PM 42.3333 -70.7312 221° Southwest 432 497 38,000  Level FlightAware ADS-B (NHT / EGWU)
Mon 03:34:51 PM 42.2876 -70.7852 221° Southwest 428 493 38,000  Level FlightAware ADS-B (NHT / EGWU)
Mon 03:35:23 PM 42.2399 -70.8416 221° Southwest 427 491 38,000  Level FlightAware ADS-B (VST / ESOW)
Mon 03:35:56 PM 42.1913 -70.8988 221° Southwest 425 489 38,000  Level FlightAware ADS-B (NHT / EGWU)
Mon 03:36:28 PM 42.1445 -70.9539 221° Southwest 422 486 38,000  Level FlightAware ADS-B (NHT / EGWU)
Mon 03:36:58 PM 42.1018 -71.0041 221° Southwest 422 486 38,000  Level FlightAware ADS-B (NHT / EGWU)
Mon 03:37:20 PM 42.0677 -71.0440 221° Southwest 422 486 38,000  Level FlightAware ADS-B (KOWD)
Mon 03:37:33 PM 42.0486 -71.0664 222° Southwest 416 479 38,000  Level FlightAware ADS-B (KASH)
Mon 03:38:11 PM 41.9998 -71.1234 221° Southwest 424 488 38,000  Level FlightAware ADS-B (KOWD)
Mon 03:38:41 PM 41.9478 -71.1841 221° Southwest 424 488 38,000  Level FlightAware ADS-B (KOWD)
Mon 03:39:12 PM 41.9017 -71.2376 221° Southwest 425 489 38,000  Level FlightAware ADS-B (KOWD)
Mon 03:39:49 PM 41.8471 -71.3009 221° Southwest 426 490 38,000  Level FlightAware ADS-B (KASH)
Mon 03:40:19 PM 41.8043 -71.3506 221° Southwest 426 490 38,000  Level FlightAware ADS-B (KASH)
Mon 03:40:49 PM 41.7584 -71.4037 221° Southwest 424 488 38,000  Level FlightAware ADS-B (KASH)
Mon 03:41:19 PM 41.7126 -71.4566 221° Southwest 424 488 38,000  Level FlightAware ADS-B (KASH)
Mon 03:41:49 PM 41.6679 -71.5080 221° Southwest 425 489 38,000  Level FlightAware ADS-B (KASH)
Mon 03:42:21 PM 41.6227 -71.5613 222° Southwest 425 489 38,000  Level FlightAware ADS-B (KOWD)
Mon 03:42:52 PM 41.5765 -71.6159 222° Southwest 426 490 38,000  Level FlightAware ADS-B (KOWD)
Mon 03:44:20 PM 41.5377 -71.6615 221° Southwest 430 495 38,000  Level FlightAware ADS-B (KOWD)
Mon 03:45:00 PM 41.5377 -71.6615 221° Southwest 430 495 38,000  Level FlightAware ADS-B (KOWD)
Mon 03:46:39 PM 41.2471 -71.9999 221° Southwest 432 497 38,000  Level FlightAware ADS-B (VST / ESOW)
Mon 03:48:10 PM 41.1008 -72.1686 221° Southwest 429 494 38,000  Level FlightAware ADS-B
Mon 03:48:57 PM 41.0295 -72.2504 221° Southwest 432 497 38,000  Level FlightAware ADS-B
Mon 03:49:57 PM 40.9398 -72.3531 221° Southwest 432 497 38,000  Level FlightAware ADS-B
Mon 03:50:42 PM 40.8881 -72.4111 221° Southwest 431 496 38,000  Level Washington Center
Mon 03:51:16 PM 40.8253 -72.4822 221° Southwest 431 496 38,000  Level Boston Center
Mon 03:52:18 PM 40.7339 -72.5856 221° Southwest 436 502 38,000  Level Boston Center
Mon 03:53:19 PM 40.6408 -72.6919 221° Southwest 443 510 38,000  Level Boston Center
Mon 03:54:20 PM 40.5481 -72.7969 221° Southwest 442 509 38,000  Level Boston Center
Mon 03:55:21 PM 40.4567 -72.8992 220° Southwest 435 501 38,000  Level Boston Center
Mon 03:56:23 PM 40.3667 -73.0006 221° Southwest 431 496 38,000  Level Boston Center
Mon 03:57:24 PM 40.2761 -73.1022 221° Southwest 429 494 38,000  Level Boston Center
Mon 03:58:25 PM 40.1856 -73.2014 220° Southwest 430 495 38,000  Level Boston Center
Mon 03:59:26 PM 40.0767 -73.3214 220° Southwest 429 494 38,000  Level Boston Center
Mon 04:00:28 PM 39.9858 -73.4225 220° Southwest 428 493 38,000  Level Boston Center
Mon 04:01:29 PM 39.8917 -73.5242 220° Southwest 428 493 38,000  Level Boston Center
Mon 04:02:30 PM 39.8006 -73.6264 221° Southwest 428 493 38,000  Level Boston Center
Mon 04:08:13 PM 39.2827 -74.1834 220° Southwest 428 493 38,000  Level FlightAware ADS-B
Mon 04:08:44 PM 39.2258 -74.2442 220° Southwest 429 494 38,000  Level FlightAware ADS-B
Mon 04:09:28 PM 39.1569 -74.3175 220° Southwest 430 495 38,000  Level FlightAware ADS-B
Mon 04:10:27 PM 39.0672 -74.4128 220° Southwest 428 493 38,000  Level FlightAware ADS-B
Mon 04:11:32 PM 38.9467 -74.5402 220° Southwest 417 480 38,000  Level FlightAware ADS-B (KWWD)
Mon 04:12:04 PM 38.8978 -74.5917 220° Southwest 423 487 38,000  Level FlightAware ADS-B (KWWD)
Mon 04:12:56 PM 38.8187 -74.6748 220° Southwest 419 482 38,000  Level FlightAware ADS-B (KWWD)
Mon 04:13:32 PM 38.7637 -74.7327 220° Southwest 418 481 38,000  Level FlightAware ADS-B (KWWD)
Mon 04:14:05 PM 38.7411 -74.7564 219° Southwest 424 488 38,000  Level FlightAware ADS-B (BHX / EGBB)
Mon 04:14:38 PM 38.7288 -74.7693 219° Southwest 425 489 38,000  Level FlightAware ADS-B (BHX / EGBB)
Mon 04:15:36 PM 38.5691 -74.9156 211° Southwest 416 479 38,000  Level FlightAware ADS-B (KWWD)
Mon 04:16:22 PM 38.4914 -74.9736 211° Southwest 416 479 38,000  Level FlightAware ADS-B (KWWD)
Mon 04:17:37 PM 38.4058 -75.0358 211° Southwest 422 486 38,000  Level Washington Center
Mon 04:18:41 PM 38.2925 -75.1192 210° Southwest 423 487 38,000  Level Washington Center
Mon 04:19:42 PM 38.1897 -75.1944 210° Southwest 424 488 38,000  Level Washington Center
Mon 04:20:44 PM 38.0875 -75.2700 210° Southwest 425 489 38,000  Level Washington Center
Mon 04:21:48 PM 37.9844 -75.3464 210° Southwest 426 490 38,000  Level Washington Center
Mon 04:22:49 PM 37.8808 -75.4231 210° Southwest 431 496 38,000  Level Washington Center
Mon 04:23:51 PM 37.7789 -75.4978 210° Southwest 428 493 38,000  Level Washington Center
Mon 04:25:56 PM 37.5519 -75.6622 206° Southwest 428 493 38,000  Level Washington Center
Mon 04:26:57 PM 37.4503 -75.7369 210° Southwest 428 493 38,000  Level Washington Center
Mon 04:27:58 PM 37.3478 -75.8103 210° Southwest 426 490 38,000  Level Washington Center
Mon 04:29:01 PM 37.2447 -75.8847 210° Southwest 427 491 38,000  Level Washington Center
Mon 04:30:05 PM 37.1225 -75.9725 210° Southwest 426 490 38,000  Level Washington Center
Mon 04:31:06 PM 37.0206 -76.0467 210° Southwest 426 490 38,000  Level Washington Center
Mon 04:32:07 PM 36.9231 -76.1150 209° Southwest 426 490 38,000  Level Washington Center
Mon 04:33:11 PM 36.8192 -76.1883 209° Southwest 426 490 38,000  Level Washington Center
Mon 04:34:12 PM 36.6978 -76.2736 209° Southwest 422 486 38,000  Level Washington Center
Mon 04:35:12 PM 36.5928 -76.3483 210° Southwest 432 497 38,000  Level Washington Center
Mon 04:36:17 PM 36.4889 -76.4194 209° Southwest 430 495 38,000  Level Washington Center
Mon 04:37:18 PM 36.3825 -76.4933 209° Southwest 433 498 38,000  Level Washington Center
Mon 04:38:19 PM 36.2772 -76.5664 209° Southwest 435 501 38,000  Level Washington Center
Mon 04:39:22 PM 36.1522 -76.6533 209° Southwest 435 501 38,000  Level Washington Center
Mon 04:40:23 PM 36.0475 -76.7253 209° Southwest 434 499 38,000  Level Washington Center
Mon 04:41:28 PM 35.9439 -76.7964 209° Southwest 429 494 38,000  Level Washington Center
Mon 04:42:29 PM 35.8431 -76.8669 210° Southwest 422 486 38,000  Level Washington Center
Mon 04:43:32 PM 35.7403 -76.9375 209° Southwest 421 484 38,000  Level Washington Center
Mon 04:44:32 PM 35.6283 -77.0153 209° Southwest 420 483 38,000  Level Washington Center
Mon 04:45:36 PM 35.5244 -77.0856 209° Southwest 422 486 38,000  Level Washington Center
Mon 04:46:37 PM 35.4217 -77.1556 209° Southwest 422 486 38,000  Level Washington Center
Mon 04:47:40 PM 35.2975 -77.2392 209° Southwest 422 486 38,000  Level Washington Center
Mon 04:48:41 PM 35.1947 -77.3106 210° Southwest 423 487 38,000  Level Washington Center
Mon 04:49:45 PM 35.0914 -77.3806 209° Southwest 423 487 38,000  Level Washington Center
Mon 04:50:46 PM 34.9883 -77.4486 208° Southwest 423 487 38,000  Level Washington Center
Mon 04:51:49 PM 34.8850 -77.5183 209° Southwest 422 486 38,000  Level Washington Center
Mon 04:52:50 PM 34.7733 -77.5936 209° Southwest 420 483 38,000  Level Washington Center
Mon 04:53:53 PM 34.6714 -77.6619 209° Southwest 420 483 38,000  Level Washington Center
Mon 04:54:54 PM 34.5694 -77.7297 209° Southwest 420 483 38,000  Level Washington Center
Mon 04:55:58 PM 34.4681 -77.7967 209° Southwest 419 482 38,000  Level Washington Center
Mon 04:56:59 PM 34.3419 -77.8739 207° Southwest 422 486 38,000  Level Washington Center
Mon 04:58:00 PM 34.2336 -77.9081 195° South 431 496 38,000  Level Washington Center
Mon 04:59:03 PM 34.1144 -77.9447 194° South 437 503 38,000  Level Washington Center
Mon 05:00:05 PM 33.9944 -77.9808 194° South 441 507 38,000  Level Washington Center
Mon 05:01:08 PM 33.8500 -78.0189 192° South 445 512 38,000  Level Washington Center
Mon 05:02:10 PM 33.7317 -78.0533 194° South 445 512 38,000  Level Washington Center
Mon 05:03:10 PM 33.6117 -78.0875 193° South 445 512 38,000  Level Washington Center
Mon 05:04:14 PM 33.4911 -78.1228 194° South 445 512 38,000  Level Washington Center
Mon 05:05:09 PM 33.3678 -78.1575 193° South 450 518 38,000  Level Jacksonville Center
Mon 05:06:09 PM 33.2500 -78.1911 193° South 450 518 38,000  Level Jacksonville Center
Mon 05:07:09 PM 33.1303 -78.2222 192° South 450 518 38,000  Level Jacksonville Center
Mon 05:08:09 PM 33.0064 -78.2583 194° South 450 518 38,000  Level Jacksonville Center
Mon 05:09:09 PM 32.8864 -78.2917 193° South 450 518 38,000  Level Jacksonville Center
Mon 05:10:09 PM 32.7647 -78.3275 194° South 450 518 38,000  Level Jacksonville Center
Mon 05:11:09 PM 32.6428 -78.3583 192° South 450 518 38,000  Level Jacksonville Center
Mon 05:12:09 PM 32.5208 -78.3964 195° South 450 518 38,000  Level Jacksonville Center
Mon 05:13:09 PM 32.3967 -78.4272 192° South 450 518 38,000  Level Jacksonville Center
Mon 05:14:09 PM 32.2667 -78.4703 196° South 445 512 38,000  Level Jacksonville Center
Mon 05:15:09 PM 32.1406 -78.5058 193° South 452 520 38,000  Level Jacksonville Center
Mon 05:16:09 PM 32.0208 -78.5411 194° South 457 526 38,000  Level Jacksonville Center
Mon 05:17:09 PM 31.8947 -78.5789 194° South 457 526 38,000  Level Jacksonville Center
Mon 05:18:09 PM 31.7750 -78.6161 195° South 457 526 38,000  Level Jacksonville Center
Mon 05:19:09 PM 31.6528 -78.6486 193° South 457 526 38,000  Level Jacksonville Center
Mon 05:20:09 PM 31.5269 -78.6861 194° South 452 520 38,000  Level Jacksonville Center
Mon 05:21:09 PM 31.4067 -78.7183 193° South 452 520 38,000  Level Jacksonville Center
Mon 05:22:09 PM 31.2786 -78.7581 195° South 458 527 38,000  Level Jacksonville Center
Mon 05:23:09 PM 31.1586 -78.7900 193° South 458 527 38,000  Level Jacksonville Center
Mon 05:24:09 PM 31.0325 -78.8294 195° South 464 534 38,000  Level Jacksonville Center
Mon 05:25:09 PM 30.9125 -78.8611 193° South 459 528 38,000  Level Jacksonville Center
Mon 05:26:09 PM 30.7925 -78.8953 194° South 459 528 38,000  Level Jacksonville Center
Mon 05:27:09 PM 30.6600 -78.9275 192° South 465 535 38,000  Level Jacksonville Center
Mon 05:27:41 PM 30.5986 -78.9467 195° South 464 534 38,000  Level Miami Center
Mon 05:28:41 PM 30.4792 -78.9806 194° South 469 540 38,000  Level Miami Center
Mon 05:29:41 PM 30.3556 -79.0261 198° South 464 534 38,000  Level Miami Center
Mon 05:30:41 PM 30.2403 -79.0717 199° South 457 526 38,000  Level Miami Center
Mon 05:31:41 PM 30.1144 -79.1172 197° South 462 532 38,000  Level Miami Center
Mon 05:32:41 PM 29.9989 -79.1722 202° Southwest 462 532 38,000  Level Miami Center
Mon 05:33:41 PM 29.8753 -79.2125 196° South 462 532 38,000  Level Miami Center
Mon 05:34:41 PM 29.7556 -79.2650 201° Southwest 462 532 38,000  Level Miami Center
Mon 05:35:41 PM 29.6358 -79.3100 198° South 462 532 38,000  Level Miami Center
Mon 05:36:41 PM 29.5183 -79.3597 200° South 461 531 38,000  Level Miami Center
Mon 05:43:02 PM 28.7400 -79.6406 198° South 457 526 38,000  Level FlightAware ADS-B
Mon 05:44:44 PM 28.5368 -79.7167 198° South 459 528 38,000  Level FlightAware ADS-B
Mon 05:45:14 PM 28.4765 -79.7393 198° South 461 531 38,000  Level FlightAware ADS-B
Mon 05:46:03 PM 28.3795 -79.7755 198° South 462 532 38,000  Level FlightAware ADS-B
Mon 05:46:34 PM 28.3181 -79.7983 198° South 463 533 38,000  Level FlightAware ADS-B
Mon 05:47:30 PM 28.2061 -79.8400 198° South 461 531 38,000  Level FlightAware ADS-B
Mon 05:48:10 PM 28.1270 -79.8693 198° South 460 529 38,000  Level FlightAware ADS-B
Mon 05:48:51 PM 28.0341 -79.9038 198° South 461 531 38,000  Level FlightAware ADS-B
Mon 05:49:24 PM 27.9686 -79.9279 198° South 462 532 38,000  Level FlightAware ADS-B
Mon 05:49:56 PM 27.9066 -79.9508 198° South 462 532 38,000  Level FlightAware ADS-B
Mon 05:50:36 PM 27.8272 -79.9800 198° South 463 533 38,000  Level FlightAware ADS-B
Mon 05:51:06 PM 27.7580 -80.0055 198° South 463 533 38,000  Level FlightAware ADS-B
Mon 05:51:37 PM 27.6948 -80.0288 198° South 463 533 38,000  Level FlightAware ADS-B
Mon 05:52:08 PM 27.6326 -80.0516 198° South 464 534 38,000  Level FlightAware ADS-B
Mon 05:52:39 PM 27.5782 -80.0715 198° South 463 533 38,000  Level FlightAware ADS-B
Mon 05:53:28 PM 27.4728 -80.1101 198° South 464 534 38,000  Level FlightAware ADS-B
Mon 05:54:00 PM 27.4039 -80.1354 198° South 465 535 38,000  Level FlightAware ADS-B
Mon 05:54:43 PM 27.3309 -80.1621 198° South 466 536 38,000  Level FlightAware ADS-B
Mon 05:55:23 PM 27.2340 -80.1974 198° South 467 537 38,000  Level FlightAware ADS-B
Mon 05:55:59 PM 27.1686 -80.2212 198° South 467 537 38,000  Level FlightAware ADS-B
Mon 05:56:45 PM 27.0765 -80.2547 198° South 466 536 38,000  Level FlightAware ADS-B
Mon 05:57:27 PM 27.0071 -80.2798 198° South 467 537 38,000  Level FlightAware ADS-B
Mon 05:58:00 PM 26.9153 -80.3131 198° South 468 539 38,000  Level FlightAware ADS-B
Mon 05:58:44 PM 26.8181 -80.3483 198° South 468 539 38,000  Level FlightAware ADS-B
Mon 05:59:14 PM 26.7626 -80.3684 198° South 469 540 38,000  Level FlightAware ADS-B
Mon 05:59:45 PM 26.6938 -80.3932 198° South 469 540 38,000  Level FlightAware ADS-B
Mon 06:00:15 PM 26.6313 -80.4156 198° South 467 537 38,000  Level FlightAware ADS-B
Mon 06:00:59 PM 26.5420 -80.4477 198° South 471 542 38,000  Level FlightAware ADS-B
Mon 06:01:30 PM 26.4945 -80.4649 198° South 472 543 38,000  Level FlightAware ADS-B
Mon 06:02:37 PM 26.3355 -80.5220 198° South 475 547 38,000  Level FlightAware ADS-B
Mon 06:03:10 PM 26.2770 -80.5429 198° South 476 548 38,000  Level FlightAware ADS-B
Mon 06:04:00 PM 26.1676 -80.5820 198° South 476 548 38,000  Level FlightAware ADS-B
Mon 06:04:45 PM 26.0865 -80.6109 198° South 475 547 38,000  Level FlightAware ADS-B
Mon 06:05:44 PM 25.9445 -80.6615 198° South 477 549 38,000  Level FlightAware ADS-B
Mon 06:06:41 PM 25.8461 -80.7006 198° South 469 540 38,000  Level Miami Center
Mon 06:07:41 PM 25.7047 -80.7514 198° South 475 547 38,000  Level Miami Center
Mon 06:08:41 PM 25.5761 -80.7978 198° South 486 559 38,000  Level Miami Center
Mon 06:09:41 PM 25.4456 -80.8419 197° South 486 559 38,000  Level Miami Center
Mon 06:10:41 PM 25.3211 -80.8839 197° South 480 552 38,000  Level Miami Center
Mon 06:11:41 PM 25.1967 -80.9303 199° South 480 552 38,000 -400 Level Miami Center
Mon 06:12:41 PM 25.0700 -80.9742 197° South 480 552 37,200 -900 Descending Miami Center
Mon 06:13:41 PM 24.9478 -81.0158 197° South 474 545 36,200 -1,000 Descending Miami Center
Mon 06:14:41 PM 24.8233 -81.0597 198° South 469 540 35,200 -2,250 Descending Miami Center
Mon 06:15:41 PM 24.6947 -81.0989 195° South 469 540 31,700 -2,750 Descending Miami Center
Mon 06:16:41 PM 24.5647 -81.1194 188° South 469 540 29,700 -1,900 Descending Miami Center
Mon 06:17:41 PM 24.4367 -81.1378 187° South 469 540 27,900 -1,850 Descending Miami Center
Mon 06:18:41 PM 24.3169 -81.1611 190° South 458 527 26,000 -2,100 Descending Miami Center
Mon 06:19:41 PM 24.1994 -81.1822 189° South 445 512 23,700 -2,100 Descending Miami Center
Mon 06:20:41 PM 24.0861 -81.2056 191° South 428 493 21,800 -1,350 Descending Miami Center
Mon 06:21:41 PM 23.9864 -81.2522 203° Southwest 412 474 21,000 -400 Descending Miami Center
Mon 06:22:41 PM 23.9069 -81.3244 220° Southwest 382 440 21,000  Level Miami Center
Mon 06:24:00 PM 23.7961 -81.4428 225° Southwest  Level FlightAware Approximate
Mon 06:31:00 PM 23.2318 -82.1066 226° Southwest  Level FlightAware Approximate
Mon 06:32:00 PM 23.1500 -82.2000 212° Southwest  Level FlightAware Approximate
Mon 06:33:00 PM 23.0674 -82.2879 231° Southwest  Level FlightAware Approximate
Mon 06:34:00 PM 22.9857 -82.3809 223° Southwest  Level FlightAware Approximate
Mon 06:35:00 PM 22.9667 -82.4000 223° Southwest  Level FlightAware Approximate
Mon 06:36:00 PM 22.9891 -82.4091 223° Southwest  Level Estimated
Mon 06:37:00 PM 22.9891 -82.4091 223° Southwest  Level Estimated
Mon 06:38:00 PM 22.9891 -82.4091 223° Southwest  Level Estimated
Mon 06:39:00 PM 22.9891 -82.4091 223° Southwest  Level Estimated
Mon 06:40:00 PM 22.9891 -82.4091 223° Southwest  Level Estimated
Mon 06:41:00 PM 22.9891 -82.4091 223° Southwest  Level Estimated
Mon 06:42:00 PM 22.9891 -82.4091 223° Southwest  Level Estimated
Mon 06:43:00 PM 22.9891 -82.4091 223° Southwest  Level Estimated
Mon 06:44:00 PM 22.9891 -82.4091 223° Southwest  Level Estimated
Mon 06:45:00 PM 22.9891 -82.4091 223° Southwest  Level Estimated
Mon 06:46:00 PM 22.9891 -82.4091 223° Southwest  Level Estimated
Mon 06:47:00 PM 22.9891 -82.4091 223° Southwest  Level Estimated
Mon 06:48:00 PM 22.9891 -82.4091 223° Southwest  Level Estimated
Mon 06:49:00 PM 22.9891 -82.4091 223° Southwest  Level Estimated
Mon 06:50:00 PM 22.9891 -82.4091 223° Southwest  Level Estimated
Mon 06:51:00 PM 22.9891 -82.4091 223° Southwest  Level Estimated
Mon 06:52:00 PM 22.9891 -82.4091 223° Southwest  Level Estimated
Mon 06:53:00 PM 22.9891 -82.4091 223° Southwest  Level Estimated
Mon 06:54:00 PM 22.9891 -82.4091 223° Southwest  Level Estimated
Mon 06:55:00 PM 22.9891 -82.4091 223° Southwest  Level Estimated
Mon 06:56:00 PM 22.9891 -82.4091 223° Southwest  Level Estimated

Login

Don't have an account? Register now (free) for customized features, flight alerts, and more!